Time;durP1;ratioP1;P1;durP2;ratioP2;P2;SDS_P1;SDS_P2;PMS_P1;PMS_P2;Temp;Humidity;BMP_temperature;BMP_pressure;BME280_temperature;BME280_humidity;BME280_pressure;Samples;Min_cycle;Max_cycle;Signal;HPM_P1;HPM_P2
2022/01/23 00:00:45;;;;;;;15.70;5.67;;;;;;;-5.14;98.62;97496.81;5133665;27;20051;-65
2022/01/23 00:03:17;;;;;;;11.17;5.67;;;;;;;-5.17;98.61;97496.88;5133560;27;20035;-66
2022/01/23 00:05:45;;;;;;;12.27;5.57;;;;;;;-5.18;98.20;97502.84;5132769;27;20291;-66
2022/01/23 00:08:14;;;;;;;10.50;4.57;;;;;;;-5.21;97.60;97502.88;5133293;27;20039;-65
2022/01/23 00:10:42;;;;;;;8.80;3.47;;;;;;;-5.26;98.08;97502.09;5134196;27;20092;-65
2022/01/23 00:13:14;;;;;;;7.37;3.27;;;;;;;-5.25;97.53;97498.66;5133617;27;20050;-64
2022/01/23 00:18:28;;;;;;;9.37;4.07;;;;;;;-5.23;97.87;97508.06;5133379;27;20114;-67
2022/01/23 00:20:56;;;;;;;7.53;2.87;;;;;;;-5.23;96.83;97509.75;5133475;27;20292;-66
2022/01/23 00:23:33;;;;;;;9.90;3.30;;;;;;;-5.24;96.54;97510.63;5133066;27;20487;-65
2022/01/23 00:31:32;;;;;;;6.70;2.70;;;;;;;-5.29;95.78;97512.38;5132888;27;20051;-65
2022/01/23 00:34:00;;;;;;;3.80;2.13;;;;;;;-5.31;95.04;97514.13;5132787;27;20038;-64
2022/01/23 00:36:29;;;;;;;5.23;2.37;;;;;;;-5.29;94.51;97522.63;5132613;27;20118;-65
2022/01/23 00:38:56;;;;;;;9.83;2.70;;;;;;;-5.29;94.15;97497.00;5114570;27;20039;-64
2022/01/23 00:41:24;;;;;;;5.83;3.33;;;;;;;-5.37;93.67;97516.75;5114454;27;20319;-66
2022/01/23 00:43:53;;;;;;;6.97;3.10;;;;;;;-5.40;93.31;97522.75;5115034;27;20047;-66
2022/01/23 00:46:30;;;;;;;4.37;2.67;;;;;;;-5.39;93.02;97519.31;5115790;27;20047;-66
2022/01/23 00:49:24;;;;;;;6.97;2.77;;;;;;;-5.40;93.03;97527.88;5135221;27;20039;-66
2022/01/23 00:51:54;;;;;;;4.43;2.63;;;;;;;-5.38;92.85;97522.75;5134693;27;20062;-67
2022/01/23 00:54:22;;;;;;;6.47;3.07;;;;;;;-5.37;92.94;97537.25;5114976;27;20051;-63
2022/01/23 00:56:49;;;;;;;6.77;3.07;;;;;;;-5.35;93.25;97533.78;5133145;27;20220;-66
2022/01/23 00:59:16;;;;;;;8.40;3.87;;;;;;;-5.37;93.66;97525.28;5133273;27;20147;-67
2022/01/23 01:01:43;;;;;;;6.50;2.80;;;;;;;-5.38;94.15;97528.72;5132999;27;20043;-66
2022/01/23 01:04:10;;;;;;;6.83;3.07;;;;;;;-5.38;94.56;97522.75;5113012;27;20415;-66
2022/01/23 01:06:38;;;;;;;4.53;2.23;;;;;;;-5.38;94.57;97522.75;5133137;27;20398;-66
2022/01/23 01:09:09;;;;;;;5.10;2.20;;;;;;;-5.44;94.83;97520.22;5134681;27;20051;-66
2022/01/23 01:14:29;;;;;;;;;;;;;;;-5.32;96.14;97515.81;5104732;27;20058;-67
2022/01/23 01:17:04;;;;;;;10.57;3.93;;;;;;;-5.37;96.63;97509.91;5114197;27;19920;-66
2022/01/23 01:30:37;;;;;;;6.63;3.83;;;;;;;-5.56;98.75;97498.16;5114180;27;20043;-66
2022/01/23 01:33:15;;;;;;;7.93;3.72;;;;;;;-5.58;100.00;97499.00;5114087;27;20379;-64
2022/01/23 01:35:50;;;;;;;8.87;2.87;;;;;;;-5.56;99.99;97487.03;5115413;27;20039;-64
2022/01/23 01:38:18;;;;;;;11.20;3.43;;;;;;;-5.57;100.00;97488.75;5132402;27;20497;-64
2022/01/23 01:40:46;;;;;;;7.80;3.47;;;;;;;-5.61;100.00;97483.69;5132289;27;20132;-64
2022/01/23 01:43:13;;;;;;;8.17;3.90;;;;;;;-5.64;100.00;97494.78;5113337;27;20046;-64
2022/01/23 01:45:42;;;;;;;9.77;4.37;;;;;;;-5.66;100.00;97496.53;5113225;27;20316;-64
2022/01/23 01:48:18;;;;;;;8.57;3.73;;;;;;;-5.61;100.00;97494.78;5113754;27;20716;-65
2022/01/23 01:50:47;;;;;;;7.43;3.30;;;;;;;-5.56;100.00;97498.16;5110365;28;20314;-65
2022/01/23 01:53:16;;;;;;;9.43;2.90;;;;;;;-5.61;100.00;97492.19;5111614;28;20287;-66
2022/01/23 01:55:47;;;;;;;9.07;3.53;;;;;;;-5.61;99.36;97497.31;5110460;28;20320;-66
2022/01/23 01:58:34;;;;;;;7.87;3.63;;;;;;;-5.63;99.74;97481.13;5108203;28;20043;-66
2022/01/23 02:10:07;;;;;;;5.37;2.73;;;;;;;-5.61;100.00;97499.88;5109937;28;20320;-65
2022/01/23 02:15:46;;;;;;;7.87;3.77;;;;;;;-5.61;100.00;97496.50;5090754;28;20285;-65
2022/01/23 02:18:28;;;;;;;8.03;3.33;;;;;;;-5.65;100.00;97497.41;5110378;28;20277;-65
2022/01/23 02:24:11;;;;;;;8.17;3.60;;;;;;;-5.68;100.00;97495.69;5107651;28;20293;-65
2022/01/23 02:51:45;;;;;;;11.97;3.40;;;;;;;-5.82;100.00;97511.19;5131993;27;20292;-65
2022/01/23 02:54:28;;;;;;;8.07;3.43;;;;;;;-5.88;100.00;97520.63;5131091;27;20702;-64
2022/01/23 02:57:00;;;;;;;7.00;3.27;;;;;;;-5.89;100.00;97524.91;5112991;28;20697;-65
2022/01/23 02:59:30;;;;;;;6.20;3.37;;;;;;;-5.84;100.00;97514.63;5114201;28;20628;-65
2022/01/23 03:02:21;;;;;;;13.52;4.30;;;;;;;-5.86;100.00;97518.91;5114426;28;20285;-64
2022/01/23 03:05:01;;;;;;;8.40;3.70;;;;;;;-5.93;100.00;97518.09;5114203;28;20043;-65
2022/01/23 03:07:53;;;;;;;15.40;3.30;;;;;;;-5.87;100.00;97512.94;5128455;28;20433;-65
2022/01/23 03:10:25;;;;;;;8.25;2.97;;;;;;;-5.85;100.00;97521.44;5130806;28;20342;-65
2022/01/23 03:27:24;;;;;;;7.43;3.90;;;;;;;-5.89;100.00;97530.03;5099073;27;20345;-66
2022/01/23 03:29:56;;;;;;;7.83;3.90;;;;;;;-5.87;100.00;97530.00;5135107;27;20287;-66
2022/01/23 03:32:29;;;;;;;7.82;3.08;;;;;;;-5.90;100.00;97532.59;5134867;27;20289;-64
2022/01/23 03:34:56;;;;;;;6.72;3.72;;;;;;;-5.91;100.00;97528.34;5134820;27;20043;-66
2022/01/23 03:37:23;;;;;;;18.87;3.57;;;;;;;-5.92;100.00;97540.28;5134521;27;20039;-64
2022/01/23 03:39:50;;;;;;;11.00;3.50;;;;;;;-5.93;100.00;97528.34;5134666;27;20376;-65
2022/01/23 03:42:19;;;;;;;8.10;2.87;;;;;;;-5.93;100.00;97528.34;5115808;27;20784;-65
2022/01/23 03:45:02;;;;;;;7.80;3.47;;;;;;;-5.92;100.00;97530.03;5134362;27;20375;-65
2022/01/23 03:47:38;;;;;;;9.93;2.92;;;;;;;-5.89;100.00;97540.25;5116693;27;20626;-65
2022/01/23 03:50:08;;;;;;;7.83;3.50;;;;;;;-5.93;100.00;97542.88;5116296;27;20047;-64
2022/01/23 03:52:39;;;;;;;8.27;3.22;;;;;;;-5.96;100.00;97532.66;5115979;27;20624;-65
2022/01/23 03:55:08;;;;;;;6.53;2.77;;;;;;;-5.97;100.00;97531.78;5115866;27;20049;-64
2022/01/23 03:57:37;;;;;;;5.63;2.70;;;;;;;-5.95;100.00;97540.34;5116039;27;20281;-65
2022/01/23 04:00:06;;;;;;;4.40;2.60;;;;;;;-5.91;100.00;97536.88;5134618;27;20455;-67
2022/01/23 04:02:40;;;;;;;4.13;2.53;;;;;;;-5.96;100.00;97533.50;5134401;27;20594;-66
2022/01/23 04:05:11;;;;;;;5.60;2.77;;;;;;;-5.93;100.00;97533.47;5098797;27;20289;-66
2022/01/23 04:07:38;;;;;;;7.73;3.27;;;;;;;-5.96;100.00;97537.78;5133997;27;20387;-66
2022/01/23 04:10:07;;;;;;;8.00;2.97;;;;;;;-5.94;100.00;97536.03;5115741;27;20300;-67
2022/01/23 04:12:37;;;;;;;6.83;3.07;;;;;;;-5.95;100.00;97540.34;5133880;27;20329;-66
2022/01/23 04:15:16;;;;;;;6.50;2.43;;;;;;;-5.96;100.00;97532.66;5116705;27;20288;-66
2022/01/23 04:20:42;;;;;;;4.83;2.40;;;;;;;-5.94;100.00;97544.59;5117254;27;20039;-65
2022/01/23 04:34:21;;;;;;;5.47;2.57;;;;;;;-5.93;100.00;97561.63;5115392;27;20287;-66
2022/01/23 04:45:26;;;;;;;8.17;3.50;;;;;;;-5.92;100.00;97572.75;5133277;27;20962;-66
2022/01/23 05:01:59;;;;;;;5.40;2.43;;;;;;;-5.96;100.00;97587.25;5114143;27;20289;-66
2022/01/23 05:04:57;;;;;;;11.40;2.97;;;;;;;-5.95;100.00;97591.53;5132448;27;20285;-66
2022/01/23 05:08:05;;;;;;;5.97;2.33;;;;;;;-6.00;100.00;97590.69;5069881;28;20386;-67
2022/01/23 05:11:02;;;;;;;8.53;3.33;;;;;;;-5.98;100.00;97586.44;5070286;28;20767;-66
2022/01/23 05:13:49;;;;;;;6.80;2.97;;;;;;;-5.95;100.00;97606.03;5107640;27;20304;-66
2022/01/23 05:16:18;;;;;;;5.53;2.77;;;;;;;-5.91;100.00;97612.84;5114320;27;21081;-66
2022/01/23 05:18:45;;;;;;;6.33;2.97;;;;;;;-5.91;100.00;97613.72;5114403;27;20130;-67
2022/01/23 05:21:39;;;;;;;4.90;2.80;;;;;;;-5.93;100.00;97612.03;5132784;27;20514;-66
2022/01/23 05:24:07;;;;;;;7.43;2.80;;;;;;;-5.91;100.00;97616.25;5133962;27;20276;-67
2022/01/23 05:26:42;;;;;;;4.53;2.67;;;;;;;-5.88;100.00;97623.06;5115789;27;20035;-66
2022/01/23 05:29:09;;;;;;;7.47;3.93;;;;;;;-5.91;100.00;97625.66;5132637;27;20293;-67
2022/01/23 05:31:36;;;;;;;6.37;2.57;;;;;;;-5.92;100.00;97627.34;5132344;27;20706;-67
2022/01/23 05:34:05;;;;;;;4.83;2.60;;;;;;;-5.92;100.00;97632.47;5114064;27;20777;-66
2022/01/23 05:36:34;;;;;;;4.00;2.33;;;;;;;-5.86;100.00;97631.56;5114108;27;20329;-66
2022/01/23 05:39:02;;;;;;;8.83;3.40;;;;;;;-5.77;100.00;97639.22;5095988;27;20300;-67
2022/01/23 05:41:31;;;;;;;5.43;2.47;;;;;;;-5.82;100.00;97623.88;5111215;27;20287;-67
2022/01/23 05:43:58;;;;;;;5.30;2.60;;;;;;;-5.82;100.00;97637.56;5113703;27;20343;-67
2022/01/23 05:46:25;;;;;;;7.67;3.40;;;;;;;-5.82;100.00;97645.22;5113883;27;20665;-67
2022/01/23 05:48:58;;;;;;;;;;;;;;;-5.78;100.00;97649.47;5113508;27;20301;-67
2022/01/23 05:51:38;;;;;;;5.53;2.77;;;;;;;-5.77;100.00;97640.91;5112776;27;20002;-67
2022/01/23 05:54:28;;;;;;;6.23;2.10;;;;;;;-5.74;100.00;97651.16;5111926;27;20671;-67
2022/01/23 05:57:15;;;;;;;5.70;2.87;;;;;;;-5.73;100.00;97663.94;5131898;27;20668;-67
2022/01/23 06:00:09;;;;;;;4.00;2.03;;;;;;;-5.78;100.00;97655.47;5128317;27;20332;-66
2022/01/23 06:02:52;;;;;;;6.25;3.35;;;;;;;-5.77;100.00;97677.66;5132797;27;20039;-66
2022/01/23 06:05:23;;;;;;;4.40;2.53;;;;;;;-5.73;100.00;97678.47;5113727;27;20042;-67
2022/01/23 06:08:00;;;;;;;8.67;3.47;;;;;;;-5.64;100.00;97676.69;5113192;27;20028;-66
2022/01/23 06:10:29;;;;;;;6.30;2.90;;;;;;;-5.59;100.00;97676.66;5131631;27;20352;-66
2022/01/23 06:12:56;;;;;;;9.17;3.03;;;;;;;-5.53;100.00;97686.88;5113191;27;20308;-65
2022/01/23 06:15:23;;;;;;;4.30;2.20;;;;;;;-5.51;100.00;97678.31;5113404;27;20295;-66
2022/01/23 06:17:50;;;;;;;7.03;2.87;;;;;;;-5.52;100.00;97688.56;5132439;27;20357;-66
2022/01/23 06:20:36;;;;;;;7.80;2.87;;;;;;;-5.45;100.00;97693.66;5132140;27;20296;-66
2022/01/23 06:23:24;;;;;;;5.00;3.03;;;;;;;-5.48;100.00;97706.50;5132122;27;20284;-66
2022/01/23 06:26:02;;;;;;;5.00;2.77;;;;;;;-5.48;100.00;97710.75;5114034;27;20051;-65
2022/01/23 06:28:41;;;;;;;6.23;2.83;;;;;;;-5.51;100.00;97698.81;5113214;27;20297;-67
2022/01/23 06:31:09;;;;;;;6.67;2.67;;;;;;;-5.44;100.00;97708.16;5112863;27;20077;-66
2022/01/23 06:33:37;;;;;;;5.13;2.77;;;;;;;-5.45;100.00;97705.63;5113392;27;20350;-66
2022/01/23 06:36:05;;;;;;;7.50;3.37;;;;;;;-5.50;100.00;97717.63;5131201;27;20594;-65
2022/01/23 06:38:35;;;;;;;7.37;3.50;;;;;;;-5.45;100.00;97710.75;5113164;27;20288;-65
2022/01/23 06:41:03;;;;;;;6.50;3.00;;;;;;;-5.42;100.00;97715.84;5114036;27;20119;-65
2022/01/23 06:43:46;;;;;;;7.10;2.50;;;;;;;-5.32;100.00;97727.75;5113149;27;20289;-67
2022/01/23 06:46:24;;;;;;;7.40;3.50;;;;;;;-5.37;100.00;97729.47;5112930;27;20059;-66
2022/01/23 06:48:51;;;;;;;6.47;2.93;;;;;;;-5.42;100.00;97731.22;5112840;28;20657;-64
2022/01/23 06:51:19;;;;;;;6.17;2.30;;;;;;;-5.42;100.00;97734.63;5112493;28;20043;-65
2022/01/23 06:53:48;;;;;;;6.90;2.90;;;;;;;-5.37;100.00;97732.03;5113965;28;20293;-65
2022/01/23 06:56:16;;;;;;;3.33;2.10;;;;;;;-5.30;100.00;97738.81;5113920;27;20094;-65
2022/01/23 06:58:45;;;;;;;5.20;2.40;;;;;;;-5.30;100.00;97749.94;5112707;28;20031;-65
2022/01/23 07:01:12;;;;;;;6.27;2.90;;;;;;;-5.33;100.00;97739.69;5095970;27;20292;-66
2022/01/23 07:04:01;;;;;;;7.47;3.00;;;;;;;-5.19;100.00;97747.28;5112605;28;20517;-66
2022/01/23 07:06:31;;;;;;;7.07;3.27;;;;;;;-5.18;100.00;97749.00;5132734;28;20039;-67
2022/01/23 07:09:18;;;;;;;10.67;3.17;;;;;;;-5.15;100.00;97747.28;5132492;28;20067;-63
2022/01/23 07:12:04;;;;;;;6.80;3.13;;;;;;;-5.02;100.00;97751.44;5114215;28;20123;-62
2022/01/23 07:14:34;;;;;;;7.70;2.97;;;;;;;-4.99;100.00;97741.16;5132041;28;20285;-62
2022/01/23 07:17:08;;;;;;;6.80;3.03;;;;;;;-4.95;100.00;97744.56;5111022;28;20728;-64
2022/01/23 07:19:48;;;;;;;4.87;2.73;;;;;;;-4.73;100.00;97733.25;5112403;28;20043;-65
2022/01/23 07:22:21;;;;;;;6.38;2.58;;;;;;;-4.73;100.00;97744.34;5112366;28;20128;-65
2022/01/23 07:24:50;;;;;;;5.07;3.40;;;;;;;-4.72;100.00;97735.78;5112366;28;20403;-64
2022/01/23 07:27:20;;;;;;;6.07;3.43;;;;;;;-4.73;100.00;97740.94;5112729;28;20031;-65
2022/01/23 07:29:48;;;;;;;5.43;3.00;;;;;;;-4.68;100.00;97754.56;5112090;28;20406;-63
2022/01/23 07:32:16;;;;;;;7.13;3.10;;;;;;;-4.65;100.00;97754.56;5112914;28;20047;-64
2022/01/23 07:34:43;;;;;;;5.93;3.00;;;;;;;-4.60;100.00;97751.09;5114305;28;20106;-64
2022/01/23 07:37:15;;;;;;;7.30;3.73;;;;;;;-4.54;100.00;97776.66;5114193;28;20035;-64
2022/01/23 07:39:53;;;;;;;6.93;3.33;;;;;;;-4.60;99.83;97766.47;5112353;28;20047;-65
2022/01/23 07:42:26;;;;;;;5.63;2.90;;;;;;;-4.51;100.00;97778.38;5112199;28;20043;-65
2022/01/23 07:44:59;;;;;;;7.65;3.65;;;;;;;-4.44;100.00;97783.44;5130476;28;20040;-65
2022/01/23 07:47:44;;;;;;;4.97;2.77;;;;;;;-4.37;100.00;97787.66;5130708;28;20084;-64
2022/01/23 07:50:33;;;;;;;5.83;2.93;;;;;;;-4.25;100.00;97787.50;5108464;28;20059;-65
2022/01/23 07:53:07;;;;;;;7.78;3.17;;;;;;;-4.29;100.00;97801.25;5108704;28;20097;-66
2022/01/23 07:55:43;;;;;;;6.73;3.07;;;;;;;-4.33;99.38;97804.72;5108768;28;20050;-66
2022/01/23 07:58:22;;;;;;;12.70;3.50;;;;;;;-4.14;99.45;97816.50;5106287;28;20039;-67
2022/01/23 08:01:07;;;;;;;9.80;3.77;;;;;;;-3.87;97.97;97820.50;5107965;28;20173;-66
2022/01/23 08:03:47;;;;;;;5.97;3.67;;;;;;;-3.57;97.96;97827.88;5108062;28;20054;-66
2022/01/23 08:06:18;;;;;;;10.70;3.63;;;;;;;-2.94;95.97;97820.16;5107383;28;20402;-66
2022/01/23 08:09:20;;;;;;;5.37;2.93;;;;;;;-3.03;92.78;97815.13;5065165;28;20048;-67
2022/01/23 08:11:49;;;;;;;5.03;2.80;;;;;;;-3.31;93.08;97818.09;5100441;28;20051;-66
2022/01/23 08:14:16;;;;;;;5.90;3.17;;;;;;;-3.68;94.92;97812.59;5111637;28;20130;-65
2022/01/23 08:16:43;;;;;;;7.27;3.90;;;;;;;-3.63;95.38;97826.22;5112832;28;20040;-66
2022/01/23 08:19:10;;;;;;;4.03;2.90;;;;;;;-3.31;95.67;97816.38;5112142;28;20096;-66
2022/01/23 08:21:37;;;;;;;5.27;2.93;;;;;;;-3.28;94.56;97820.63;5111889;28;20423;-66
2022/01/23 08:24:04;;;;;;;8.10;2.93;;;;;;;-3.55;94.28;97818.44;5111431;28;20112;-65
2022/01/23 08:26:31;;;;;;;6.30;3.27;;;;;;;-3.58;95.04;97823.59;5113865;28;20074;-64
2022/01/23 08:29:00;;;;;;;7.40;3.40;;;;;;;-3.45;94.39;97822.56;5113614;28;20507;-65
2022/01/23 08:31:27;;;;;;;6.87;3.60;;;;;;;-3.13;93.92;97836.72;5113582;28;20036;-65
2022/01/23 08:33:54;;;;;;;7.27;3.90;;;;;;;-3.28;92.20;97836.06;5112183;28;20092;-66
2022/01/23 08:36:21;;;;;;;7.13;3.37;;;;;;;-3.51;91.29;97826.06;5111684;28;20131;-66
2022/01/23 08:38:48;;;;;;;7.40;4.53;;;;;;;-3.50;92.51;97850.06;5111767;28;20039;-66
2022/01/23 08:44:16;;;;;;;13.97;3.97;;;;;;;-3.32;92.66;97850.66;5068808;28;20033;-65
2022/01/23 08:46:43;;;;;;;6.10;3.47;;;;;;;-3.13;91.58;97867.59;5067017;28;20076;-67
2022/01/23 08:49:10;;;;;;;8.70;4.00;;;;;;;-3.06;90.85;97861.50;5090894;27;20051;-66
2022/01/23 08:51:37;;;;;;;6.80;4.37;;;;;;;-3.01;90.46;97862.28;5132042;27;20031;-66
2022/01/23 08:54:05;;;;;;;8.00;4.03;;;;;;;-3.10;90.35;97864.97;5113199;27;20049;-66
2022/01/23 08:56:32;;;;;;;7.67;4.13;;;;;;;-3.22;91.44;97874.59;5132010;27;20046;-64
2022/01/23 08:58:59;;;;;;;8.07;4.13;;;;;;;-3.38;91.85;97870.47;5113593;27;20197;-66
2022/01/23 09:01:29;;;;;;;10.00;5.03;;;;;;;-3.36;92.33;97877.31;5131919;27;20070;-65
2022/01/23 09:03:56;;;;;;;16.93;7.30;;;;;;;-3.40;90.13;97867.91;5132450;27;20135;-66
2022/01/23 09:06:24;;;;;;;17.87;9.20;;;;;;;-3.13;90.15;97884.75;5129847;27;20051;-66
2022/01/23 09:08:51;;;;;;;12.73;5.63;;;;;;;-2.59;87.03;97887.41;5131567;27;20047;-67
2022/01/23 09:11:26;;;;;;;15.53;7.37;;;;;;;-2.81;86.01;97888.56;5132940;27;20051;-66
2022/01/23 09:14:06;;;;;;;17.90;6.87;;;;;;;-3.10;83.92;97902.72;5132851;27;20078;-65
2022/01/23 09:16:36;;;;;;;13.83;7.20;;;;;;;-3.51;82.59;97917.78;5130033;27;20046;-66
2022/01/23 09:19:04;;;;;;;13.73;6.80;;;;;;;-3.55;83.20;97922.09;5131528;27;20038;-67
2022/01/23 09:21:31;;;;;;;18.77;7.80;;;;;;;-3.72;81.57;97925.72;5129884;27;20507;-65
2022/01/23 09:23:59;;;;;;;13.20;6.13;;;;;;;-3.76;80.60;97934.31;5130854;27;20058;-66
2022/01/23 09:26:26;;;;;;;14.60;6.63;;;;;;;-3.81;80.03;97938.66;5131532;27;20077;-66
2022/01/23 09:28:57;;;;;;;17.70;7.33;;;;;;;-3.60;79.61;97943.56;5131235;27;20039;-66
2022/01/23 09:31:32;;;;;;;12.87;6.83;;;;;;;-3.65;76.16;97960.78;5131126;27;20399;-65
2022/01/23 09:34:03;;;;;;;12.17;6.13;;;;;;;-3.71;76.59;97951.41;5132575;27;20046;-66
2022/01/23 09:36:30;;;;;;;14.27;7.10;;;;;;;-3.77;75.95;97960.91;5132034;27;20487;-66
2022/01/23 09:38:57;;;;;;;17.07;6.70;;;;;;;-3.81;75.73;97962.63;5114340;27;20043;-67
2022/01/23 09:41:29;;;;;;;14.77;6.30;;;;;;;-3.70;74.74;97952.22;5131971;27;20074;-66
2022/01/23 09:43:57;;;;;;;11.43;5.90;;;;;;;-3.70;74.72;97952.22;5132446;27;20054;-66
2022/01/23 09:46:25;;;;;;;12.80;6.90;;;;;;;-3.93;73.55;97959.31;5131974;27;20427;-67
2022/01/23 09:48:53;;;;;;;13.03;6.50;;;;;;;-4.01;73.38;97961.09;5131846;27;20050;-65
2022/01/23 09:51:24;;;;;;;17.90;7.77;;;;;;;-4.16;73.56;97963.78;5133128;27;20062;-67
2022/01/23 09:53:53;;;;;;;18.67;8.33;;;;;;;-3.97;73.69;97966.19;5133931;27;20464;-62
2022/01/23 09:56:26;;;;;;;17.33;7.40;;;;;;;-3.80;72.80;97956.63;5132692;27;20047;-65
2022/01/23 09:58:54;;;;;;;18.30;9.23;;;;;;;-3.88;72.52;97968.69;5132053;27;20495;-66
2022/01/23 10:01:23;;;;;;;13.63;7.37;;;;;;;-3.71;71.63;97977.09;5133174;27;20039;-65
2022/01/23 10:03:50;;;;;;;18.87;8.53;;;;;;;-3.39;71.62;97974.22;5131721;27;20433;-65
2022/01/23 10:06:17;;;;;;;21.63;9.83;;;;;;;-3.31;70.75;97964.69;5113658;27;20060;-66
2022/01/23 10:08:48;;;;;;;16.80;7.10;;;;;;;-3.04;70.17;97972.97;5131686;27;20031;-68
2022/01/23 10:11:16;;;;;;;19.97;10.20;;;;;;;-3.47;70.30;97963.16;5131694;27;20054;-68
2022/01/23 10:13:44;;;;;;;19.33;7.90;;;;;;;-4.01;70.88;97979.94;5131846;27;20039;-67
2022/01/23 10:16:11;;;;;;;17.13;8.50;;;;;;;-4.18;71.33;97986.03;5131857;27;20050;-66
2022/01/23 10:18:39;;;;;;;13.77;7.30;;;;;;;-4.75;70.77;97986.41;5131526;27;20046;-66
2022/01/23 10:21:07;;;;;;;13.73;6.53;;;;;;;-5.11;73.44;98004.53;5131506;27;20454;-66
2022/01/23 10:23:35;;;;;;;13.43;6.80;;;;;;;-4.66;71.71;98001.75;5131499;27;20046;-66
2022/01/23 10:26:04;;;;;;;10.00;5.40;;;;;;;-4.68;70.67;98000.94;5131607;27;20084;-66
2022/01/23 10:28:34;;;;;;;15.40;6.83;;;;;;;-4.54;71.11;98005.13;5132264;27;20050;-65
2022/01/23 10:31:04;;;;;;;13.70;6.47;;;;;;;-4.33;69.89;98011.84;5131644;27;20318;-67
2022/01/23 10:33:34;;;;;;;18.30;8.47;;;;;;;-3.98;69.88;98020.16;5131307;27;20045;-72
2022/01/23 10:36:05;;;;;;;17.90;7.07;;;;;;;-3.77;68.49;98020.00;5131501;27;20522;-67
2022/01/23 10:38:50;;;;;;;13.33;5.93;;;;;;;-3.40;66.97;98018.81;5132423;27;20039;-66
2022/01/23 10:41:32;;;;;;;17.20;8.30;;;;;;;-3.78;67.16;98041.41;5132269;27;20035;-70
2022/01/23 10:47:30;;;;;;;13.77;7.20;;;;;;;-4.14;68.46;98037.38;5132020;27;20030;-68
2022/01/23 10:49:59;;;;;;;18.07;8.30;;;;;;;-3.98;68.38;98028.75;5131178;27;20051;-67
2022/01/23 10:52:32;;;;;;;16.60;7.00;;;;;;;-3.89;67.28;98032.94;5130795;27;20039;-67
2022/01/23 10:54:59;;;;;;;14.32;5.65;;;;;;;-3.84;66.96;98033.78;5108876;27;20051;-66
2022/01/23 10:57:40;;;;;;;14.33;6.20;;;;;;;-3.81;66.94;98038.88;5129383;27;20043;-66
2022/01/23 11:00:11;;;;;;;17.43;6.97;;;;;;;-3.87;65.83;98052.63;5130487;28;20047;-66
2022/01/23 11:02:40;;;;;;;12.97;6.83;;;;;;;-4.13;66.37;98054.50;5130384;27;20068;-67
2022/01/23 11:05:11;;;;;;;11.20;5.77;;;;;;;-4.05;67.13;98052.75;5130728;28;20041;-67
2022/01/23 11:07:41;;;;;;;15.27;5.80;;;;;;;-3.66;65.94;98061.91;5130468;28;20050;-67
2022/01/23 11:10:11;;;;;;;13.53;6.40;;;;;;;-3.32;64.42;98065.88;5130413;28;20046;-66
2022/01/23 11:17:21;;;;;;;11.77;5.20;;;;;;;-3.20;64.52;98056.34;5130481;28;20031;-67
2022/01/23 11:18:33;;;;;;;14.20;6.97;;;;;;;-3.73;66.07;98060.25;5130243;28;20060;-69
2022/01/23 11:21:14;;;;;;;10.27;5.20;;;;;;;-3.36;65.20;98066.78;5130252;28;20115;-69
2022/01/23 11:23:42;;;;;;;12.37;5.93;;;;;;;-3.09;64.23;98057.06;5130560;28;20036;-68
2022/01/23 11:26:11;;;;;;;13.87;7.07;;;;;;;-3.38;63.96;98051.38;5130660;28;20043;-68
2022/01/23 11:28:44;;;;;;;14.13;5.90;;;;;;;-3.44;64.50;98064.25;5129274;28;20056;-66
2022/01/23 11:31:16;;;;;;;12.73;4.87;;;;;;;-2.99;64.14;98053.53;5131420;28;20039;-68
2022/01/23 11:33:44;;;;;;;12.53;6.73;;;;;;;-3.37;63.88;98054.75;5131825;28;20277;-69
2022/01/23 11:36:12;;;;;;;16.30;6.13;;;;;;;-3.67;65.21;98094.44;5131355;28;20047;-73
2022/01/23 11:38:43;;;;;;;13.80;6.20;;;;;;;-3.75;65.84;98097.94;5131620;28;20477;-68
2022/01/23 11:55:06;;;;;;;;;;;;;;;-4.62;70.13;98108.69;5135114;27;20039;-64
2022/01/23 11:57:37;;;;;;;15.73;8.53;;;;;;;-4.49;69.20;98116.34;5134457;27;19945;-67
2022/01/23 12:00:19;;;;;;;10.33;5.53;;;;;;;-4.63;69.13;98109.53;5135433;27;20478;-67
2022/01/23 12:03:07;;;;;;;12.87;7.23;;;;;;;-4.65;69.32;98126.66;5135139;27;20042;-68
2022/01/23 12:05:37;;;;;;;9.80;5.47;;;;;;;-4.70;69.31;98121.53;5133478;27;20035;-69
2022/01/23 12:08:31;;;;;;;13.70;5.77;;;;;;;-4.64;70.55;98136.94;5115002;27;20091;-71
2022/01/23 12:17:20;;;;;;;11.77;5.67;;;;;;;-4.27;69.18;98153.03;5133608;27;20399;-70
2022/01/23 12:19:53;;;;;;;16.83;7.03;;;;;;;-4.41;69.95;98149.69;5132229;27;20039;-71
2022/01/23 12:22:36;;;;;;;12.68;5.68;;;;;;;-4.50;69.99;98160.00;5109680;27;20050;-70
2022/01/23 12:25:31;;;;;;;11.18;5.82;;;;;;;-4.67;70.02;98151.47;5133440;27;20053;-70
2022/01/23 12:28:24;;;;;;;13.57;6.17;;;;;;;-4.48;69.79;98159.13;5133254;27;20035;-70
2022/01/23 12:30:54;;;;;;;21.00;7.47;;;;;;;-4.45;70.34;98160.81;5133121;27;20531;-70
2022/01/23 12:33:47;;;;;;;15.83;8.00;;;;;;;-4.44;70.05;98155.69;5115322;27;20062;-69
2022/01/23 12:36:32;;;;;;;12.73;5.78;;;;;;;-4.62;71.20;98172.88;5132461;27;20485;-68
2022/01/23 12:39:18;;;;;;;11.43;5.60;;;;;;;-4.73;70.94;98175.44;5133145;27;20088;-68
2022/01/23 12:41:59;;;;;;;17.07;7.60;;;;;;;-4.83;72.35;98196.00;5114718;27;20043;-69
2022/01/23 12:44:37;;;;;;;13.27;6.47;;;;;;;-4.97;72.54;98201.16;5133400;27;20047;-68
2022/01/23 12:47:06;;;;;;;19.83;7.27;;;;;;;-5.05;73.13;98207.97;5133101;27;20130;-69
2022/01/23 12:49:38;;;;;;;14.97;6.70;;;;;;;-5.14;73.53;98219.94;5133943;27;20491;-69
2022/01/23 12:52:17;;;;;;;15.57;8.10;;;;;;;-4.95;74.33;98216.53;5132685;27;20116;-69
2022/01/23 12:54:55;;;;;;;17.13;7.80;;;;;;;-5.01;74.95;98219.97;5133288;27;20043;-65
2022/01/23 12:57:31;;;;;;;15.10;5.90;;;;;;;-4.69;76.70;98215.63;5133304;27;20045;-70
2022/01/23 13:00:01;;;;;;;11.10;5.87;;;;;;;-4.68;75.45;98224.19;5132375;27;20039;-68
2022/01/23 13:02:39;;;;;;;15.57;7.30;;;;;;;-4.77;75.54;98232.75;5132455;27;20046;-69
2022/01/23 13:05:10;;;;;;;12.87;7.33;;;;;;;-4.84;74.89;98225.06;5132834;27;20138;-69
2022/01/23 13:07:40;;;;;;;9.27;4.50;;;;;;;-4.86;75.76;98226.78;5131430;27;20031;-69
2022/01/23 13:10:23;;;;;;;16.27;7.67;;;;;;;-4.97;76.34;98226.78;5132515;27;20043;-69
2022/01/23 13:12:57;;;;;;;8.20;4.18;;;;;;;-4.97;75.10;98229.34;5132379;27;20057;-68
2022/01/23 13:15:43;;;;;;;;;;;;;;;-5.10;74.81;98226.78;5133940;27;20039;-68
2022/01/23 13:18:30;;;;;;;8.50;4.50;;;;;;;-5.34;74.79;98232.75;5132333;27;19926;-73
2022/01/23 13:27:03;;;;;;;12.67;5.37;;;;;;;-5.58;76.04;98247.22;5132336;27;20059;-70
2022/01/23 13:32:19;;;;;;;18.90;8.07;;;;;;;-5.90;76.67;98257.38;5131732;27;20789;-71
2022/01/23 13:34:50;;;;;;;21.23;7.33;;;;;;;-5.89;76.65;98261.66;5132534;27;20078;-69
2022/01/23 13:37:20;;;;;;;20.90;9.37;;;;;;;-5.87;77.35;98276.19;5132259;27;20054;-67
2022/01/23 13:39:52;;;;;;;21.53;8.10;;;;;;;-5.88;77.46;98283.84;5127148;27;20492;-67
2022/01/23 13:54:16;;;;;;;11.10;5.60;;;;;;;-5.79;76.36;98299.25;5132112;27;20039;-68
2022/01/23 13:59:35;;;;;;;16.67;7.03;;;;;;;-5.96;76.37;98311.97;5130232;27;20498;-68
2022/01/23 14:04:56;;;;;;;15.77;7.40;;;;;;;-6.02;77.37;98319.66;5127621;27;20383;-66
2022/01/23 14:07:25;;;;;;;21.17;9.07;;;;;;;-6.13;78.04;98320.44;5131365;27;20043;-67
2022/01/23 14:09:55;;;;;;;17.23;6.93;;;;;;;-6.17;77.64;98324.69;5131469;27;20836;-66
2022/01/23 14:12:23;;;;;;;16.60;6.07;;;;;;;-6.23;77.97;98328.91;5129875;27;20288;-66
2022/01/23 14:14:55;;;;;;;12.80;6.63;;;;;;;-6.37;77.98;98339.06;5131585;27;20054;-65
2022/01/23 14:17:25;;;;;;;13.77;6.20;;;;;;;-6.30;78.68;98340.81;5131640;27;20363;-64
2022/01/23 14:20:01;;;;;;;13.53;5.87;;;;;;;-6.21;78.79;98352.81;5130987;27;20373;-65
2022/01/23 14:22:31;;;;;;;18.83;7.80;;;;;;;-6.38;78.74;98349.28;5131174;27;20315;-66
2022/01/23 14:25:15;;;;;;;15.50;6.87;;;;;;;-6.45;79.47;98350.06;5131030;27;20113;-66
2022/01/23 14:27:45;;;;;;;16.13;6.63;;;;;;;-6.52;79.75;98361.97;5130300;27;20316;-65
2022/01/23 14:30:15;;;;;;;14.43;5.80;;;;;;;-6.62;80.60;98365.28;5113045;27;20399;-66
2022/01/23 14:32:48;;;;;;;16.73;7.67;;;;;;;-6.70;81.58;98363.53;5130157;27;20292;-67
2022/01/23 14:35:19;;;;;;;19.87;8.97;;;;;;;-6.70;81.35;98368.66;5131177;27;20285;-67
2022/01/23 14:37:48;;;;;;;21.40;9.27;;;;;;;-6.76;81.72;98371.16;5130725;27;20289;-65
2022/01/23 14:40:21;;;;;;;22.10;8.40;;;;;;;-6.76;82.31;98383.94;5131418;27;20829;-65
2022/01/23 14:43:03;;;;;;;18.33;8.18;;;;;;;-6.85;81.86;98368.53;5129637;27;20292;-67